Time;durP1;ratioP1;P1;durP2;ratioP2;P2;SDS_P1;SDS_P2;PMS_P1;PMS_P2;Temp;Humidity;BMP_temperature;BMP_pressure;BME280_temperature;BME280_humidity;BME280_pressure;Samples;Min_cycle;Max_cycle;Signal;HPM_P1;HPM_P2
2023/09/10 00:00:28;;;;;;;9.90;5.38;;;;;;;;;;5076504;28;20124;-81
2023/09/10 00:02:53;;;;;;;9.68;4.70;;;;;;;;;;5076311;28;20384;-81
2023/09/10 00:05:19;;;;;;;12.38;5.13;;;;;;;;;;5074517;28;20033;-80
2023/09/10 00:07:44;;;;;;;8.90;4.70;;;;;;;;;;5072074;28;20051;-81
2023/09/10 00:10:09;;;;;;;9.27;5.30;;;;;;;;;;5074940;28;20021;-80
2023/09/10 00:12:35;;;;;;;9.38;4.97;;;;;;;;;;5075573;28;20040;-80
2023/09/10 00:15:00;;;;;;;9.43;5.05;;;;;;;;;;5064685;28;20031;-81
2023/09/10 00:17:25;;;;;;;7.95;4.90;;;;;;;;;;5072263;28;20124;-80
2023/09/10 00:19:51;;;;;;;12.75;5.00;;;;;;;;;;5075795;28;20024;-81
2023/09/10 00:22:16;;;;;;;11.80;5.20;;;;;;;;;;5071265;28;20727;-81
2023/09/10 00:24:41;;;;;;;8.70;4.90;;;;;;;;;;5075194;28;20040;-82
2023/09/10 00:27:07;;;;;;;10.82;5.00;;;;;;;;;;5074940;28;20028;-82
2023/09/10 00:29:32;;;;;;;9.23;5.00;;;;;;;;;;5069046;28;20028;-81
2023/09/10 00:31:57;;;;;;;11.45;5.00;;;;;;;;;;5094067;28;20044;-80
2023/09/10 00:34:23;;;;;;;11.32;5.30;;;;;;;;;;5075204;28;20117;-81
2023/09/10 00:36:48;;;;;;;12.18;5.05;;;;;;;;;;5069063;28;20025;-80
2023/09/10 00:39:14;;;;;;;9.48;4.90;;;;;;;;;;5059967;28;20041;-81
2023/09/10 00:41:39;;;;;;;10.20;5.30;;;;;;;;;;5066414;28;20036;-81
2023/09/10 00:44:05;;;;;;;10.25;4.75;;;;;;;;;;5066076;28;20546;-81
2023/09/10 00:46:31;;;;;;;9.52;4.88;;;;;;;;;;5069181;28;20017;-80
2023/09/10 00:48:58;;;;;;;13.23;4.97;;;;;;;;;;5069039;28;23185;-80
2023/09/10 00:51:24;;;;;;;9.35;5.00;;;;;;;;;;5071086;28;20032;-80
2023/09/10 00:53:49;;;;;;;10.60;4.70;;;;;;;;;;5066660;28;20758;-81
2023/09/10 00:56:15;;;;;;;11.50;4.32;;;;;;;;;;5070160;28;20024;-81
2023/09/10 00:58:41;;;;;;;10.43;5.25;;;;;;;;;;5074338;28;20044;-80
2023/09/10 01:01:08;;;;;;;10.70;5.20;;;;;;;;;;5074752;28;20028;-81
2023/09/10 01:03:35;;;;;;;12.07;4.90;;;;;;;;;;5074767;28;20032;-81
2023/09/10 01:06:00;;;;;;;12.40;5.05;;;;;;;;;;5081247;28;20075;-81
2023/09/10 01:08:26;;;;;;;9.25;5.00;;;;;;;;;;5080010;28;20354;-81
2023/09/10 01:10:54;;;;;;;12.80;4.70;;;;;;;;;;5066099;28;20607;-81
2023/09/10 01:13:41;;;;;;;11.15;4.97;;;;;;;;;;5072039;28;20028;-81
2023/09/10 01:16:33;;;;;;;9.77;4.85;;;;;;;;;;5072868;28;20036;-82
2023/09/10 01:19:06;;;;;;;11.18;4.72;;;;;;;;;;5065906;28;20037;-81
2023/09/10 01:21:48;;;;;;;11.60;5.10;;;;;;;;;;5071300;28;20029;-82
2023/09/10 01:24:38;;;;;;;8.50;4.68;;;;;;;;;;5069007;28;20031;-83
2023/09/10 01:27:04;;;;;;;10.75;4.88;;;;;;;;;;5071769;28;20067;-81
2023/09/10 01:29:29;;;;;;;10.82;4.90;;;;;;;;;;5069081;28;20048;-81
2023/09/10 01:31:59;;;;;;;10.07;4.97;;;;;;;;;;5071527;28;20053;-81
2023/09/10 01:34:30;;;;;;;10.98;4.93;;;;;;;;;;5071382;28;20032;-81
2023/09/10 01:37:04;;;;;;;10.77;4.72;;;;;;;;;;5071663;28;20020;-82
2023/09/10 01:39:37;;;;;;;8.15;4.63;;;;;;;;;;5065554;28;20029;-81
2023/09/10 01:42:12;;;;;;;13.30;5.05;;;;;;;;;;5066980;28;20055;-82
2023/09/10 01:44:41;;;;;;;9.20;5.00;;;;;;;;;;5069824;28;20036;-81
2023/09/10 01:47:07;;;;;;;13.30;5.10;;;;;;;;;;5069494;28;20025;-81
2023/09/10 01:49:33;;;;;;;12.13;5.45;;;;;;;;;;5073360;28;20028;-82
2023/09/10 01:51:58;;;;;;;11.75;4.68;;;;;;;;;;5076305;28;20035;-81
2023/09/10 01:54:23;;;;;;;9.85;4.78;;;;;;;;;;5053991;28;20395;-81
2023/09/10 01:56:49;;;;;;;11.50;5.00;;;;;;;;;;5064444;28;20052;-79
2023/09/10 01:59:14;;;;;;;12.68;4.93;;;;;;;;;;5067787;28;20090;-81
2023/09/10 02:01:39;;;;;;;12.63;4.80;;;;;;;;;;5070380;28;20041;-82
2023/09/10 02:04:05;;;;;;;11.15;4.75;;;;;;;;;;5074561;28;20037;-82
2023/09/10 02:06:31;;;;;;;10.25;4.90;;;;;;;;;;5077433;28;20049;-81
2023/09/10 02:08:56;;;;;;;8.40;4.68;;;;;;;;;;5067909;28;20039;-82
2023/09/10 02:11:21;;;;;;;12.13;4.50;;;;;;;;;;5068205;28;20105;-82
2023/09/10 02:13:47;;;;;;;10.68;4.78;;;;;;;;;;5078161;28;20108;-81
2023/09/10 02:16:12;;;;;;;10.55;4.80;;;;;;;;;;5077900;28;20059;-81
2023/09/10 02:18:37;;;;;;;12.30;4.55;;;;;;;;;;5073667;28;20052;-81
2023/09/10 02:21:10;;;;;;;9.25;4.72;;;;;;;;;;5068561;28;20039;-81
2023/09/10 02:23:36;;;;;;;10.25;4.80;;;;;;;;;;5076369;28;20025;-81
2023/09/10 02:26:02;;;;;;;10.25;4.72;;;;;;;;;;5068096;28;20100;-81
2023/09/10 02:28:27;;;;;;;11.05;5.00;;;;;;;;;;5073705;28;20051;-82
2023/09/10 02:30:53;;;;;;;12.05;5.05;;;;;;;;;;5068581;28;20477;-81
2023/09/10 02:33:18;;;;;;;11.60;4.72;;;;;;;;;;5080320;28;20032;-82
2023/09/10 02:35:44;;;;;;;14.95;5.10;;;;;;;;;;5079480;28;20016;-82
2023/09/10 02:38:09;;;;;;;10.18;4.65;;;;;;;;;;5077277;28;20676;-81
2023/09/10 02:40:34;;;;;;;14.75;4.82;;;;;;;;;;5077155;28;20035;-81
2023/09/10 02:43:00;;;;;;;12.23;4.60;;;;;;;;;;5077101;28;20044;-81
2023/09/10 02:45:25;;;;;;;11.50;4.90;;;;;;;;;;5082290;28;20032;-82
2023/09/10 02:47:50;;;;;;;9.25;4.80;;;;;;;;;;5092569;28;20081;-84
2023/09/10 02:50:16;;;;;;;10.60;4.78;;;;;;;;;;5087313;28;20247;-81
2023/09/10 02:52:41;;;;;;;10.10;4.90;;;;;;;;;;5079351;28;20092;-81
2023/09/10 02:55:08;;;;;;;13.13;5.00;;;;;;;;;;5080613;28;20060;-82
2023/09/10 02:57:34;;;;;;;12.02;4.85;;;;;;;;;;5080989;28;20075;-82
2023/09/10 02:59:59;;;;;;;12.75;4.70;;;;;;;;;;5081189;28;20209;-82
2023/09/10 03:02:25;;;;;;;11.88;4.97;;;;;;;;;;5079980;28;20061;-82
2023/09/10 03:04:51;;;;;;;11.77;4.75;;;;;;;;;;5081204;28;20052;-82
2023/09/10 03:07:16;;;;;;;11.85;4.53;;;;;;;;;;5078155;28;20035;-81
2023/09/10 03:09:41;;;;;;;11.98;4.90;;;;;;;;;;5073249;28;20031;-81
2023/09/10 03:12:19;;;;;;;12.32;4.68;;;;;;;;;;5080606;28;20051;-81
2023/09/10 03:14:45;;;;;;;10.05;4.90;;;;;;;;;;5080932;28;20084;-81
2023/09/10 03:17:11;;;;;;;11.77;4.63;;;;;;;;;;5080581;28;20031;-83
2023/09/10 03:19:37;;;;;;;9.32;4.50;;;;;;;;;;5079600;28;20044;-81
2023/09/10 03:22:03;;;;;;;10.00;4.70;;;;;;;;;;5067221;28;20027;-82
2023/09/10 03:24:28;;;;;;;10.50;4.80;;;;;;;;;;5076719;28;20271;-82
2023/09/10 03:26:54;;;;;;;9.82;4.50;;;;;;;;;;5079080;28;20021;-82
2023/09/10 03:29:19;;;;;;;12.25;4.93;;;;;;;;;;5079517;28;20024;-82
2023/09/10 03:31:44;;;;;;;11.07;4.68;;;;;;;;;;5080374;28;20375;-83
2023/09/10 03:34:10;;;;;;;8.57;4.50;;;;;;;;;;5080464;28;20052;-82
2023/09/10 03:36:35;;;;;;;7.25;4.40;;;;;;;;;;5080619;28;20036;-81
2023/09/10 03:39:00;;;;;;;9.70;4.70;;;;;;;;;;5079959;28;20086;-81
2023/09/10 03:41:26;;;;;;;11.23;4.85;;;;;;;;;;5076046;28;20032;-82
2023/09/10 03:43:53;;;;;;;11.88;4.60;;;;;;;;;;5072492;28;20039;-81
2023/09/10 03:46:19;;;;;;;9.40;4.47;;;;;;;;;;5077224;28;20032;-81
2023/09/10 03:48:44;;;;;;;8.88;4.53;;;;;;;;;;5074754;28;20059;-81
2023/09/10 03:51:09;;;;;;;12.05;4.35;;;;;;;;;;5069628;28;20040;-82
2023/09/10 03:53:35;;;;;;;11.25;4.47;;;;;;;;;;5070664;28;20034;-81
2023/09/10 03:56:00;;;;;;;11.90;5.10;;;;;;;;;;5081998;28;20202;-82
2023/09/10 03:58:25;;;;;;;9.05;4.47;;;;;;;;;;5080196;28;20037;-86
2023/09/10 04:00:51;;;;;;;12.40;4.65;;;;;;;;;;5071059;28;20202;-82
2023/09/10 04:03:16;;;;;;;9.02;4.38;;;;;;;;;;5086860;28;20263;-81
2023/09/10 04:05:42;;;;;;;8.43;4.40;;;;;;;;;;5081431;28;20100;-81
2023/09/10 04:08:07;;;;;;;14.48;4.93;;;;;;;;;;5089643;28;20070;-83
2023/09/10 04:10:33;;;;;;;10.27;4.53;;;;;;;;;;5080235;28;20039;-82
2023/09/10 04:12:58;;;;;;;11.40;4.40;;;;;;;;;;5080282;28;20028;-81
2023/09/10 04:15:23;;;;;;;9.57;4.50;;;;;;;;;;5081613;28;20064;-81
2023/09/10 04:17:49;;;;;;;10.15;4.55;;;;;;;;;;5076275;28;20032;-82
2023/09/10 04:20:15;;;;;;;10.35;4.80;;;;;;;;;;5076934;28;20189;-82
2023/09/10 04:22:40;;;;;;;9.85;4.80;;;;;;;;;;5069724;28;20036;-81
2023/09/10 04:25:06;;;;;;;11.43;4.80;;;;;;;;;;5078572;28;20427;-81
2023/09/10 04:27:31;;;;;;;12.30;4.55;;;;;;;;;;5077924;28;20036;-82
2023/09/10 04:29:57;;;;;;;9.85;4.50;;;;;;;;;;5077311;28;20024;-81
2023/09/10 04:32:23;;;;;;;13.52;4.82;;;;;;;;;;5079413;28;20032;-82
2023/09/10 04:34:48;;;;;;;11.27;4.88;;;;;;;;;;5084454;28;20032;-82
2023/09/10 04:37:13;;;;;;;10.70;4.72;;;;;;;;;;5072607;28;20025;-82
2023/09/10 04:39:39;;;;;;;12.40;4.85;;;;;;;;;;5072555;28;20025;-82
2023/09/10 04:42:05;;;;;;;9.38;4.50;;;;;;;;;;5073775;28;20028;-82
2023/09/10 04:44:30;;;;;;;10.40;4.70;;;;;;;;;;5079599;28;20029;-82
2023/09/10 04:46:55;;;;;;;9.77;4.47;;;;;;;;;;5078554;28;20032;-82
2023/09/10 04:49:21;;;;;;;8.30;4.70;;;;;;;;;;5079591;28;20055;-83
2023/09/10 04:51:46;;;;;;;8.90;4.40;;;;;;;;;;5081704;28;20029;-81
2023/09/10 04:54:11;;;;;;;9.38;4.43;;;;;;;;;;5082484;28;20063;-81
2023/09/10 04:56:37;;;;;;;12.07;4.50;;;;;;;;;;5082063;28;20023;-82
2023/09/10 04:59:02;;;;;;;12.55;4.70;;;;;;;;;;5083776;28;20111;-81
2023/09/10 05:01:27;;;;;;;14.40;4.97;;;;;;;;;;5083280;28;20029;-81
2023/09/10 05:03:53;;;;;;;12.18;4.75;;;;;;;;;;5078823;28;20036;-79
2023/09/10 05:06:20;;;;;;;11.35;4.50;;;;;;;;;;5083530;28;20032;-79
2023/09/10 05:08:45;;;;;;;11.15;4.60;;;;;;;;;;5083408;28;20036;-81
2023/09/10 05:11:12;;;;;;;9.55;4.57;;;;;;;;;;5072288;28;20036;-80
2023/09/10 05:13:37;;;;;;;11.15;4.55;;;;;;;;;;5077776;28;20035;-80
2023/09/10 05:16:03;;;;;;;8.95;4.50;;;;;;;;;;5074982;28;20036;-81
2023/09/10 05:18:29;;;;;;;12.32;4.68;;;;;;;;;;5082024;28;20074;-81
2023/09/10 05:20:57;;;;;;;10.35;4.50;;;;;;;;;;5081952;28;20089;-83
2023/09/10 05:23:23;;;;;;;11.52;4.80;;;;;;;;;;5082282;28;20059;-81
2023/09/10 05:25:49;;;;;;;7.45;4.35;;;;;;;;;;5081890;28;20020;-81
2023/09/10 05:28:15;;;;;;;14.63;5.07;;;;;;;;;;5081184;28;20039;-82
2023/09/10 05:30:41;;;;;;;10.18;4.53;;;;;;;;;;5081174;28;20020;-82
2023/09/10 05:33:06;;;;;;;12.38;4.68;;;;;;;;;;5082542;28;20365;-81
2023/09/10 05:35:32;;;;;;;14.18;5.00;;;;;;;;;;5080696;28;20028;-81
2023/09/10 05:37:57;;;;;;;13.55;4.72;;;;;;;;;;5081940;28;20031;-84
2023/09/10 05:40:23;;;;;;;10.70;4.70;;;;;;;;;;5079560;28;20324;-82
2023/09/10 05:42:48;;;;;;;11.13;4.72;;;;;;;;;;5081311;28;20034;-83
2023/09/10 05:45:14;;;;;;;15.48;5.45;;;;;;;;;;5077095;28;20047;-83
2023/09/10 05:47:39;;;;;;;10.90;4.80;;;;;;;;;;5072928;28;20032;-82
2023/09/10 05:50:05;;;;;;;13.23;4.40;;;;;;;;;;5080939;28;20244;-82
2023/09/10 05:52:31;;;;;;;8.95;4.60;;;;;;;;;;5081356;28;20251;-83
2023/09/10 05:54:56;;;;;;;8.32;4.55;;;;;;;;;;5082298;28;20024;-82
2023/09/10 05:57:21;;;;;;;13.27;4.65;;;;;;;;;;5079481;28;20025;-83
2023/09/10 05:59:47;;;;;;;8.05;4.45;;;;;;;;;;5081147;28;20126;-83
2023/09/10 06:02:12;;;;;;;10.90;5.13;;;;;;;;;;5066885;28;20032;-83
2023/09/10 06:04:40;;;;;;;11.18;4.38;;;;;;;;;;5079220;28;20096;-81
2023/09/10 06:07:05;;;;;;;13.68;4.30;;;;;;;;;;5081670;28;20028;-83
2023/09/10 06:09:32;;;;;;;13.55;4.40;;;;;;;;;;5080366;28;20048;-80
2023/09/10 06:11:59;;;;;;;8.82;4.30;;;;;;;;;;5072200;28;20036;-81
2023/09/10 06:14:24;;;;;;;12.65;4.88;;;;;;;;;;5081283;28;20107;-82
2023/09/10 06:16:50;;;;;;;12.40;4.55;;;;;;;;;;5081220;28;20031;-83
2023/09/10 06:19:15;;;;;;;8.88;4.68;;;;;;;;;;5080985;28;20043;-82
2023/09/10 06:21:41;;;;;;;12.00;4.40;;;;;;;;;;5082043;28;20036;-81
2023/09/10 06:24:06;;;;;;;16.02;4.50;;;;;;;;;;5079068;28;20056;-83
2023/09/10 06:26:32;;;;;;;12.40;4.32;;;;;;;;;;5077443;28;20020;-89
2023/09/10 06:28:59;;;;;;;10.65;4.45;;;;;;;;;;5075076;28;20091;-90
2023/09/10 06:31:24;;;;;;;8.52;4.45;;;;;;;;;;5077596;28;20021;-83
2023/09/10 06:33:49;;;;;;;10.45;4.20;;;;;;;;;;5071867;28;20028;-80
2023/09/10 06:36:16;;;;;;;11.90;4.80;;;;;;;;;;5069834;28;20104;-80
2023/09/10 06:38:47;;;;;;;13.15;4.65;;;;;;;;;;5077467;28;20017;-83
2023/09/10 06:41:14;;;;;;;12.05;4.95;;;;;;;;;;5078998;28;20373;-77
2023/09/10 06:43:39;;;;;;;12.25;5.20;;;;;;;;;;5078177;28;20137;-77
2023/09/10 06:46:04;;;;;;;13.60;5.43;;;;;;;;;;5075822;28;20052;-76
2023/09/10 06:48:29;;;;;;;15.02;4.55;;;;;;;;;;5078486;28;20033;-80
2023/09/10 06:50:57;;;;;;;10.25;4.60;;;;;;;;;;5078144;28;20036;-77
2023/09/10 06:53:22;;;;;;;11.50;4.72;;;;;;;;;;5072854;28;20418;-77
2023/09/10 06:55:47;;;;;;;14.40;4.68;;;;;;;;;;5080567;28;20082;-77
2023/09/10 06:58:14;;;;;;;12.65;4.43;;;;;;;;;;5077714;28;20040;-76
2023/09/10 07:00:40;;;;;;;11.45;4.40;;;;;;;;;;5069505;28;20063;-77
2023/09/10 07:03:08;;;;;;;10.38;4.53;;;;;;;;;;5070510;28;20033;-83
2023/09/10 07:05:33;;;;;;;16.80;5.00;;;;;;;;;;5066691;28;20564;-76
2023/09/10 07:07:59;;;;;;;10.90;4.43;;;;;;;;;;5060414;28;20029;-82
2023/09/10 07:10:24;;;;;;;11.32;5.22;;;;;;;;;;5068101;28;20028;-80
2023/09/10 07:12:50;;;;;;;8.15;4.57;;;;;;;;;;5067904;28;20024;-80
2023/09/10 07:15:15;;;;;;;14.57;4.43;;;;;;;;;;5066696;28;20026;-79
2023/09/10 07:17:40;;;;;;;14.07;4.57;;;;;;;;;;5067765;28;20134;-80
2023/09/10 07:20:07;;;;;;;10.98;4.35;;;;;;;;;;5068467;28;20036;-92
2023/09/10 07:22:32;;;;;;;12.05;4.70;;;;;;;;;;5068841;28;20394;-79
2023/09/10 07:24:58;;;;;;;11.65;4.40;;;;;;;;;;5067424;28;20035;-85
2023/09/10 07:27:23;;;;;;;11.75;4.50;;;;;;;;;;5069117;28;20060;-80
2023/09/10 07:29:48;;;;;;;9.77;4.35;;;;;;;;;;5067873;28;20028;-80
2023/09/10 07:32:14;;;;;;;9.73;4.18;;;;;;;;;;5067332;28;20043;-81
2023/09/10 07:34:39;;;;;;;12.77;4.60;;;;;;;;;;5067308;28;20459;-80
2023/09/10 07:37:04;;;;;;;13.10;4.45;;;;;;;;;;5062838;28;20579;-79
2023/09/10 07:39:32;;;;;;;12.10;4.50;;;;;;;;;;5058716;28;20433;-83
2023/09/10 07:41:58;;;;;;;11.13;4.25;;;;;;;;;;5065148;28;20032;-79
2023/09/10 07:44:23;;;;;;;13.40;4.53;;;;;;;;;;5067251;28;20358;-79
2023/09/10 07:46:48;;;;;;;13.40;4.53;;;;;;;;;;5063584;28;20105;-80
2023/09/10 07:49:14;;;;;;;13.75;4.30;;;;;;;;;;5061928;28;20116;-79
2023/09/10 07:51:39;;;;;;;13.32;4.60;;;;;;;;;;5064824;28;20207;-79
2023/09/10 07:54:05;;;;;;;8.05;4.15;;;;;;;;;;5066774;28;20024;-78
2023/09/10 07:56:30;;;;;;;11.05;4.10;;;;;;;;;;5058585;28;20031;-80
2023/09/10 07:58:55;;;;;;;9.68;4.40;;;;;;;;;;5065703;28;20173;-81
2023/09/10 08:01:21;;;;;;;14.95;4.72;;;;;;;;;;5051866;28;20033;-78
2023/09/10 08:03:46;;;;;;;12.57;4.47;;;;;;;;;;5064593;28;20151;-79
2023/09/10 08:06:12;;;;;;;11.25;4.45;;;;;;;;;;5067701;28;20082;-78
2023/09/10 08:08:38;;;;;;;13.45;4.07;;;;;;;;;;5065748;28;20389;-80
2023/09/10 08:11:03;;;;;;;10.10;4.13;;;;;;;;;;5061677;28;20065;-83
2023/09/10 08:13:29;;;;;;;10.80;3.97;;;;;;;;;;5059348;28;20115;-76
2023/09/10 08:15:54;;;;;;;10.65;4.18;;;;;;;;;;5060484;28;20029;-78
2023/09/10 08:18:20;;;;;;;11.70;4.00;;;;;;;;;;5067908;28;20021;-78
2023/09/10 08:20:45;;;;;;;8.27;4.10;;;;;;;;;;5068832;28;20107;-82
2023/09/10 08:23:10;;;;;;;12.00;4.55;;;;;;;;;;5065532;28;20439;-84
2023/09/10 08:25:36;;;;;;;8.38;4.05;;;;;;;;;;5054616;28;20025;-83
2023/09/10 08:28:02;;;;;;;12.23;4.10;;;;;;;;;;5074271;28;20036;-80
2023/09/10 08:30:28;;;;;;;13.23;4.15;;;;;;;;;;5068832;28;20029;-83
2023/09/10 08:32:53;;;;;;;11.38;4.38;;;;;;;;;;5070720;28;20020;-80
2023/09/10 08:35:20;;;;;;;9.57;4.10;;;;;;;;;;5059594;28;20537;-81
2023/09/10 08:37:45;;;;;;;11.63;4.30;;;;;;;;;;5070255;28;20032;-80
2023/09/10 08:40:11;;;;;;;10.00;4.32;;;;;;;;;;5065676;28;20115;-81
2023/09/10 08:43:00;;;;;;;8.40;4.35;;;;;;;;;;5076344;28;20036;-83
2023/09/10 08:45:29;;;;;;;11.23;4.20;;;;;;;;;;5081887;28;20091;-81
2023/09/10 08:47:57;;;;;;;10.20;4.10;;;;;;;;;;5072627;28;20028;-85
2023/09/10 08:50:23;;;;;;;11.98;4.32;;;;;;;;;;5062808;28;20032;-84
2023/09/10 08:52:50;;;;;;;8.30;4.45;;;;;;;;;;5066889;28;20028;-90
2023/09/10 08:55:16;;;;;;;9.50;4.13;;;;;;;;;;5068057;28;20033;-84
2023/09/10 08:57:44;;;;;;;12.18;4.38;;;;;;;;;;5072198;28;20040;-83
2023/09/10 09:00:12;;;;;;;9.38;4.28;;;;;;;;;;5070409;28;20032;-83
2023/09/10 09:02:44;;;;;;;10.52;4.30;;;;;;;;;;5070258;28;20031;-85
2023/09/10 09:05:11;;;;;;;11.13;4.10;;;;;;;;;;5058785;28;20028;-82
2023/09/10 09:07:45;;;;;;;11.85;4.50;;;;;;;;;;5071714;28;20032;-80
2023/09/10 09:10:18;;;;;;;9.50;4.30;;;;;;;;;;5069971;28;20029;-80
2023/09/10 09:12:45;;;;;;;9.40;4.47;;;;;;;;;;5065821;28;20021;-81
2023/09/10 09:15:11;;;;;;;8.65;3.90;;;;;;;;;;5064480;28;20039;-79
2023/09/10 09:17:41;;;;;;;8.23;4.05;;;;;;;;;;5069944;28;20108;-78
2023/09/10 09:20:11;;;;;;;12.07;4.45;;;;;;;;;;5066649;28;20028;-83
2023/09/10 09:22:41;;;;;;;9.57;4.00;;;;;;;;;;5058560;28;20028;-80
2023/09/10 09:25:07;;;;;;;6.85;3.92;;;;;;;;;;5067584;28;20036;-83
2023/09/10 09:27:34;;;;;;;9.27;4.10;;;;;;;;;;5056110;28;20089;-80
2023/09/10 09:30:05;;;;;;;6.72;4.15;;;;;;;;;;5062761;28;20033;-84
2023/09/10 09:32:31;;;;;;;9.35;4.00;;;;;;;;;;5057151;28;20090;-77
2023/09/10 09:34:56;;;;;;;7.28;4.18;;;;;;;;;;5059873;28;20048;-83
2023/09/10 09:37:22;;;;;;;7.35;4.10;;;;;;;;;;5067011;28;20120;-84
2023/09/10 09:39:50;;;;;;;8.00;3.90;;;;;;;;;;5068237;28;20367;-78
2023/09/10 09:42:15;;;;;;;10.65;4.45;;;;;;;;;;5061757;28;20036;-80
2023/09/10 09:44:44;;;;;;;10.63;4.32;;;;;;;;;;5060961;28;20090;-79
2023/09/10 09:47:13;;;;;;;7.30;4.30;;;;;;;;;;5064818;28;20046;-79
2023/09/10 09:49:45;;;;;;;9.50;4.05;;;;;;;;;;5064960;28;20029;-79
2023/09/10 09:52:12;;;;;;;7.45;4.25;;;;;;;;;;5057854;28;20036;-79
2023/09/10 09:54:38;;;;;;;8.82;4.72;;;;;;;;;;5070150;28;20141;-78
2023/09/10 09:57:04;;;;;;;6.95;4.10;;;;;;;;;;5069008;28;20041;-78
2023/09/10 09:59:34;;;;;;;7.05;4.00;;;;;;;;;;5068967;28;20313;-79
2023/09/10 10:02:00;;;;;;;7.57;4.20;;;;;;;;;;5077037;28;20063;-79
2023/09/10 10:04:25;;;;;;;10.18;4.38;;;;;;;;;;5071712;28;20572;-78
2023/09/10 10:06:51;;;;;;;7.45;4.10;;;;;;;;;;5080977;28;20024;-78
2023/09/10 10:09:19;;;;;;;10.50;4.13;;;;;;;;;;5079427;28;20032;-79
2023/09/10 10:11:44;;;;;;;11.15;4.32;;;;;;;;;;5066036;28;20024;-80
2023/09/10 10:14:10;;;;;;;6.93;4.47;;;;;;;;;;5065013;28;20044;-78
2023/09/10 10:16:37;;;;;;;9.35;4.40;;;;;;;;;;5061258;28;20036;-78
2023/09/10 10:19:03;;;;;;;5.75;4.20;;;;;;;;;;5065763;28;20032;-77
2023/09/10 10:21:29;;;;;;;8.93;4.63;;;;;;;;;;5067486;28;20108;-78
2023/09/10 10:23:56;;;;;;;9.32;4.50;;;;;;;;;;5062537;28;20028;-78
2023/09/10 10:26:22;;;;;;;8.20;4.47;;;;;;;;;;5063656;28;20043;-77
2023/09/10 10:28:51;;;;;;;6.63;4.78;;;;;;;;;;5070898;28;20063;-76
2023/09/10 10:31:19;;;;;;;9.15;4.68;;;;;;;;;;5065414;28;20029;-77
2023/09/10 10:34:14;;;;;;;12.30;4.65;;;;;;;;;;5065021;28;20036;-78
2023/09/10 10:37:01;;;;;;;7.18;4.63;;;;;;;;;;5066822;28;20171;-82
2023/09/10 10:39:46;;;;;;;7.90;4.82;;;;;;;;;;5061387;28;20025;-78
2023/09/10 10:42:15;;;;;;;7.78;4.70;;;;;;;;;;5064382;28;20033;-83
2023/09/10 10:44:42;;;;;;;6.40;4.53;;;;;;;;;;5072040;28;20362;-79
2023/09/10 10:47:13;;;;;;;8.25;4.65;;;;;;;;;;5060256;28;20079;-77
2023/09/10 10:49:49;;;;;;;8.43;4.95;;;;;;;;;;5062632;28;20037;-78
2023/09/10 10:52:17;;;;;;;13.15;5.00;;;;;;;;;;5062722;28;20021;-78
2023/09/10 10:54:43;;;;;;;11.50;5.15;;;;;;;;;;5061354;28;20037;-77
2023/09/10 10:57:09;;;;;;;7.60;5.07;;;;;;;;;;5063751;28;20515;-77
2023/09/10 10:59:35;;;;;;;9.93;4.53;;;;;;;;;;5067282;28;20059;-79
2023/09/10 11:02:23;;;;;;;8.75;4.80;;;;;;;;;;5063618;28;20044;-77
2023/09/10 11:04:59;;;;;;;7.90;4.78;;;;;;;;;;5064008;28;20397;-77
2023/09/10 11:07:29;;;;;;;7.15;4.88;;;;;;;;;;5066786;28;20059;-79
2023/09/10 11:09:57;;;;;;;9.90;4.82;;;;;;;;;;5064094;28;20682;-78
2023/09/10 11:12:22;;;;;;;7.03;4.75;;;;;;;;;;5064338;28;20031;-80
2023/09/10 11:15:00;;;;;;;10.05;5.10;;;;;;;;;;5059389;28;20034;-81
2023/09/10 11:17:32;;;;;;;8.05;4.85;;;;;;;;;;5074495;28;20039;-77
2023/09/10 11:19:58;;;;;;;7.95;4.80;;;;;;;;;;5071771;28;20028;-77
2023/09/10 11:22:23;;;;;;;9.30;5.20;;;;;;;;;;5080047;28;20036;-77
2023/09/10 11:25:07;;;;;;;8.95;4.95;;;;;;;;;;5080154;28;20024;-81
2023/09/10 11:27:34;;;;;;;6.80;4.90;;;;;;;;;;5066804;28;20496;-78
2023/09/10 11:30:13;;;;;;;8.30;5.10;;;;;;;;;;5068270;28;20509;-79
2023/09/10 11:32:40;;;;;;;10.25;5.10;;;;;;;;;;5072224;28;20040;-78
2023/09/10 11:35:31;;;;;;;9.45;5.00;;;;;;;;;;5068312;28;20036;-79
2023/09/10 11:37:57;;;;;;;9.60;4.88;;;;;;;;;;5059314;28;20431;-79
2023/09/10 11:40:24;;;;;;;7.43;4.65;;;;;;;;;;5068796;28;20730;-78
2023/09/10 11:42:50;;;;;;;10.27;4.95;;;;;;;;;;5059820;28;20031;-78
2023/09/10 11:45:17;;;;;;;6.68;4.93;;;;;;;;;;5069269;28;20028;-78
2023/09/10 11:47:45;;;;;;;9.65;5.03;;;;;;;;;;5068851;28;20024;-79
2023/09/10 11:50:12;;;;;;;9.80;4.72;;;;;;;;;;5067082;28;20032;-78
2023/09/10 11:52:40;;;;;;;8.57;4.90;;;;;;;;;;5068094;28;20051;-79
2023/09/10 11:55:06;;;;;;;7.10;4.90;;;;;;;;;;5063040;28;20037;-79
2023/09/10 11:57:31;;;;;;;7.85;4.82;;;;;;;;;;5069311;28;20048;-78
2023/09/10 11:59:57;;;;;;;11.20;5.35;;;;;;;;;;5072398;28;20020;-78
2023/09/10 12:02:24;;;;;;;8.95;5.10;;;;;;;;;;5066587;28;20021;-77
2023/09/10 12:04:49;;;;;;;11.93;5.05;;;;;;;;;;5064225;28;20469;-79
2023/09/10 12:07:15;;;;;;;6.65;5.03;;;;;;;;;;5064621;28;20033;-80
2023/09/10 12:09:40;;;;;;;9.55;4.68;;;;;;;;;;5065561;28;20115;-77
2023/09/10 12:12:13;;;;;;;6.85;5.05;;;;;;;;;;5066023;28;20594;-77
2023/09/10 12:14:39;;;;;;;10.10;4.68;;;;;;;;;;5066874;28;20028;-78
2023/09/10 12:17:04;;;;;;;6.63;4.90;;;;;;;;;;5065874;28;20037;-80
2023/09/10 12:19:32;;;;;;;10.35;4.97;;;;;;;;;;5067642;28;20016;-79
2023/09/10 12:21:57;;;;;;;8.95;4.78;;;;;;;;;;5065738;28;20036;-79
2023/09/10 12:24:23;;;;;;;7.30;4.70;;;;;;;;;;5066625;28;20025;-79
2023/09/10 12:26:48;;;;;;;9.27;5.13;;;;;;;;;;5066996;28;20031;-77
2023/09/10 12:29:14;;;;;;;6.30;4.90;;;;;;;;;;5066189;28;20374;-78
2023/09/10 12:31:41;;;;;;;8.40;5.13;;;;;;;;;;5066679;28;20050;-79
2023/09/10 12:34:09;;;;;;;10.15;4.95;;;;;;;;;;5065819;28;20052;-76
2023/09/10 12:36:34;;;;;;;7.85;4.88;;;;;;;;;;5056272;28;20024;-78
2023/09/10 12:39:00;;;;;;;5.55;4.43;;;;;;;;;;5064392;28;20081;-81
2023/09/10 12:41:26;;;;;;;6.38;4.82;;;;;;;;;;5064510;28;20499;-77
2023/09/10 12:43:52;;;;;;;6.45;4.63;;;;;;;;;;5065555;28;20028;-77
2023/09/10 12:46:20;;;;;;;6.25;4.35;;;;;;;;;;5068343;28;20021;-81
2023/09/10 12:48:46;;;;;;;6.82;4.72;;;;;;;;;;5075351;28;20024;-78
2023/09/10 12:51:13;;;;;;;8.85;4.80;;;;;;;;;;5070586;28;20562;-77
2023/09/10 12:53:38;;;;;;;7.65;4.78;;;;;;;;;;5067435;28;20032;-76
2023/09/10 12:56:05;;;;;;;8.43;4.80;;;;;;;;;;5066414;28;20059;-77
2023/09/10 12:58:31;;;;;;;7.68;5.00;;;;;;;;;;5068202;28;20045;-79
2023/09/10 13:00:58;;;;;;;6.18;4.32;;;;;;;;;;5065612;28;20385;-76
2023/09/10 13:03:25;;;;;;;7.82;4.75;;;;;;;;;;5064991;28;20120;-78
2023/09/10 13:05:50;;;;;;;7.72;4.70;;;;;;;;;;5058304;28;20025;-77
2023/09/10 13:08:15;;;;;;;7.65;4.60;;;;;;;;;;5064675;28;20159;-78
2023/09/10 13:10:41;;;;;;;10.60;5.07;;;;;;;;;;5071018;28;20509;-79
2023/09/10 13:13:07;;;;;;;6.40;4.70;;;;;;;;;;5069393;28;20025;-77
2023/09/10 13:15:33;;;;;;;6.80;4.60;;;;;;;;;;5068998;28;20028;-77
2023/09/10 13:17:58;;;;;;;8.73;4.50;;;;;;;;;;5068817;28;20036;-77
2023/09/10 13:20:25;;;;;;;8.73;4.70;;;;;;;;;;5064143;28;20032;-77
2023/09/10 13:22:51;;;;;;;8.05;4.85;;;;;;;;;;5068160;28;20199;-76
2023/09/10 13:25:16;;;;;;;7.57;4.40;;;;;;;;;;5065643;28;20103;-78
2023/09/10 13:27:42;;;;;;;10.00;5.00;;;;;;;;;;5075181;28;20032;-78
2023/09/10 13:30:07;;;;;;;8.60;4.80;;;;;;;;;;5073994;28;20100;-79
2023/09/10 13:32:33;;;;;;;6.90;4.18;;;;;;;;;;5071382;28;20094;-77
2023/09/10 13:34:58;;;;;;;6.10;4.82;;;;;;;;;;5070924;28;20189;-78
2023/09/10 13:37:23;;;;;;;7.63;4.82;;;;;;;;;;5070417;28;20079;-79
2023/09/10 13:39:49;;;;;;;9.60;4.70;;;;;;;;;;5073026;28;20021;-78
2023/09/10 13:42:14;;;;;;;6.07;4.50;;;;;;;;;;5076115;28;20079;-78
2023/09/10 13:44:39;;;;;;;7.88;4.50;;;;;;;;;;5079580;28;20313;-78
2023/09/10 13:47:05;;;;;;;7.32;4.53;;;;;;;;;;5080977;28;20094;-78
2023/09/10 13:49:30;;;;;;;6.15;4.43;;;;;;;;;;5080999;28;20034;-80
2023/09/10 13:51:56;;;;;;;5.53;4.07;;;;;;;;;;5082668;28;20032;-79
2023/09/10 13:54:21;;;;;;;8.60;4.43;;;;;;;;;;5080853;28;20074;-80
2023/09/10 13:56:47;;;;;;;7.30;4.60;;;;;;;;;;5081728;28;20056;-78
2023/09/10 13:59:12;;;;;;;6.53;4.20;;;;;;;;;;5080467;28;20028;-79
2023/09/10 14:01:37;;;;;;;5.95;4.75;;;;;;;;;;5082290;28;20060;-79
2023/09/10 14:04:06;;;;;;;8.23;4.40;;;;;;;;;;5076331;28;20216;-80
2023/09/10 14:06:32;;;;;;;8.60;4.65;;;;;;;;;;5082446;28;20032;-80
2023/09/10 14:08:57;;;;;;;8.13;4.40;;;;;;;;;;5077852;28;20090;-79
2023/09/10 14:11:22;;;;;;;6.80;3.97;;;;;;;;;;5076545;28;20024;-80
2023/09/10 14:13:48;;;;;;;6.25;4.47;;;;;;;;;;5073527;28;20602;-79
2023/09/10 14:16:14;;;;;;;6.93;4.60;;;;;;;;;;5068547;28;20044;-79
2023/09/10 14:18:40;;;;;;;6.50;4.60;;;;;;;;;;5072792;28;20103;-79
2023/09/10 14:21:09;;;;;;;9.68;5.00;;;;;;;;;;5071786;28;20616;-80
2023/09/10 14:23:35;;;;;;;6.75;4.97;;;;;;;;;;5072380;28;20025;-79
2023/09/10 14:26:01;;;;;;;10.43;4.82;;;;;;;;;;5078406;28;20042;-81
2023/09/10 14:28:26;;;;;;;7.97;5.00;;;;;;;;;;5078257;28;20016;-79
2023/09/10 14:30:52;;;;;;;9.73;4.47;;;;;;;;;;5080038;28;20668;-79
2023/09/10 14:33:19;;;;;;;5.40;4.35;;;;;;;;;;5076947;28;20036;-80